Time;durP1;ratioP1;P1;durP2;ratioP2;P2;SDS_P1;SDS_P2;PMS_P1;PMS_P2;Temp;Humidity;BMP_temperature;BMP_pressure;BME280_temperature;BME280_humidity;BME280_pressure;Samples;Min_cycle;Max_cycle;Signal;HPM_P1;HPM_P2
2024/01/15 00:01:37;;;;;;;2.90;0.43;;;2.60;99.90;;;;;;5072043;28;20049;-49
2024/01/15 00:04:02;;;;;;;3.07;0.10;;;2.50;99.90;;;;;;5073314;28;20097;-51
2024/01/15 00:06:28;;;;;;;1.10;0.30;;;2.40;99.90;;;;;;5073311;28;20071;-51
2024/01/15 00:08:54;;;;;;;0.90;0.20;;;2.20;99.90;;;;;;5073118;28;20097;-52
2024/01/15 00:11:20;;;;;;;2.33;0.20;;;2.10;99.90;;;;;;5073364;28;20060;-50
2024/01/15 00:13:46;;;;;;;3.23;0.40;;;2.00;99.90;;;;;;5073946;28;20044;-52
2024/01/15 00:16:12;;;;;;;2.55;0.30;;;2.00;99.90;;;;;;5076955;28;20503;-48
2024/01/15 00:18:37;;;;;;;0.67;0.20;;;1.90;99.90;;;;;;5076757;28;20053;-52
2024/01/15 00:21:03;;;;;;;3.05;0.60;;;1.90;99.90;;;;;;5076984;28;20476;-50
2024/01/15 00:23:29;;;;;;;3.80;0.40;;;1.90;99.90;;;;;;5092683;28;20497;-51
2024/01/15 00:25:55;;;;;;;4.30;0.50;;;1.90;99.90;;;;;;5076949;28;20044;-51
2024/01/15 00:28:21;;;;;;;1.60;0.30;;;1.90;99.90;;;;;;5075636;28;20053;-51
2024/01/15 00:30:46;;;;;;;1.70;0.32;;;1.80;99.90;;;;;;5076829;28;20049;-49
2024/01/15 00:33:12;;;;;;;2.22;0.52;;;1.90;99.90;;;;;;5076793;28;20051;-48
2024/01/15 00:35:38;;;;;;;3.53;0.40;;;1.90;99.90;;;;;;5076646;28;20048;-48
2024/01/15 00:38:03;;;;;;;1.87;0.33;;;1.90;99.90;;;;;;5076581;28;20044;-49
2024/01/15 00:40:29;;;;;;;2.80;0.43;;;1.90;99.90;;;;;;5076671;28;20052;-48
2024/01/15 00:42:55;;;;;;;4.32;0.85;;;1.90;99.90;;;;;;5076404;28;20059;-48
2024/01/15 00:45:20;;;;;;;2.22;0.40;;;1.90;99.90;;;;;;5076547;28;20040;-49
2024/01/15 00:47:46;;;;;;;5.88;0.63;;;1.90;99.90;;;;;;5076576;28;20123;-48
2024/01/15 00:50:12;;;;;;;2.43;0.47;;;1.90;99.90;;;;;;5075580;28;20388;-49
2024/01/15 00:52:38;;;;;;;3.88;0.40;;;2.00;99.90;;;;;;5076205;28;20049;-49
2024/01/15 00:55:04;;;;;;;3.85;0.52;;;2.10;99.90;;;;;;5076408;28;20098;-49
2024/01/15 00:57:29;;;;;;;7.53;0.70;;;2.00;99.90;;;;;;5091855;28;20050;-49
2024/01/15 00:59:55;;;;;;;6.37;0.57;;;2.00;99.90;;;;;;5075083;28;20048;-49
2024/01/15 01:02:21;;;;;;;9.30;0.97;;;2.10;99.90;;;;;;5076092;28;20040;-49
2024/01/15 01:04:46;;;;;;;10.98;0.68;;;2.10;99.90;;;;;;5076246;28;20080;-49
2024/01/15 01:07:12;;;;;;;3.90;0.93;;;2.10;99.90;;;;;;5076067;28;20040;-50
2024/01/15 01:09:37;;;;;;;4.90;0.93;;;2.20;99.90;;;;;;5076198;28;20182;-48
2024/01/15 01:12:03;;;;;;;5.90;0.80;;;2.20;99.90;;;;;;5076110;28;20080;-48
2024/01/15 01:14:29;;;;;;;7.17;0.63;;;2.20;99.90;;;;;;5075070;28;20052;-48
2024/01/15 01:16:55;;;;;;;9.80;0.87;;;2.20;99.90;;;;;;5075855;28;20059;-49
2024/01/15 01:19:20;;;;;;;6.33;0.90;;;2.20;99.90;;;;;;5075823;28;20149;-49
2024/01/15 01:21:46;;;;;;;5.32;1.73;;;2.20;99.90;;;;;;5074622;28;20048;-49
2024/01/15 01:24:12;;;;;;;9.85;0.60;;;2.20;99.90;;;;;;5075593;28;20087;-49
2024/01/15 01:26:37;;;;;;;5.40;1.02;;;2.20;99.90;;;;;;5074692;28;20456;-49
2024/01/15 01:29:03;;;;;;;5.60;1.02;;;2.10;99.90;;;;;;5075781;28;20049;-48
2024/01/15 01:31:29;;;;;;;2.42;0.55;;;2.20;99.90;;;;;;5075758;28;20052;-49
2024/01/15 01:33:54;;;;;;;8.37;1.10;;;2.10;99.90;;;;;;5075516;28;20095;-50
2024/01/15 01:36:20;;;;;;;5.80;0.60;;;2.10;99.90;;;;;;5075455;28;20057;-50
2024/01/15 01:38:46;;;;;;;6.68;1.60;;;2.20;99.90;;;;;;5075583;28;20048;-50
2024/01/15 01:41:11;;;;;;;7.28;1.00;;;2.20;99.90;;;;;;5074647;28;20041;-49
2024/01/15 01:43:37;;;;;;;5.73;1.00;;;2.20;99.90;;;;;;5075589;28;20099;-48
2024/01/15 01:46:03;;;;;;;9.10;0.90;;;2.30;99.90;;;;;;5075643;28;20048;-49
2024/01/15 01:48:30;;;;;;;7.72;1.17;;;2.20;99.90;;;;;;5075456;28;20136;-50
2024/01/15 01:50:59;;;;;;;9.45;1.00;;;2.20;99.90;;;;;;5075283;28;20048;-49
2024/01/15 01:53:26;;;;;;;6.38;0.80;;;2.20;99.90;;;;;;5075210;28;20056;-48
2024/01/15 01:55:53;;;;;;;8.85;1.30;;;2.30;99.90;;;;;;5075130;28;20045;-49
2024/01/15 01:58:20;;;;;;;8.88;1.27;;;2.30;99.90;;;;;;5075087;28;20132;-49
2024/01/15 02:00:47;;;;;;;9.32;1.13;;;2.30;99.90;;;;;;5074244;28;20442;-48
2024/01/15 02:03:12;;;;;;;;;;;2.30;99.90;;;;;;5075547;28;20054;-49
2024/01/15 02:05:39;;;;;;;5.43;1.02;;;2.40;99.90;;;;;;5075039;28;19920;-48
2024/01/15 02:08:05;;;;;;;9.25;1.40;;;2.40;99.90;;;;;;5074073;28;20055;-49
2024/01/15 02:10:32;;;;;;;7.60;0.98;;;2.40;99.90;;;;;;5075237;28;20037;-48
2024/01/15 02:12:58;;;;;;;6.82;0.93;;;2.50;99.90;;;;;;5074927;28;20048;-49
2024/01/15 02:15:23;;;;;;;8.50;0.67;;;2.50;99.90;;;;;;5074843;28;20049;-51
2024/01/15 02:18:03;;;;;;;6.60;1.00;;;2.60;99.90;;;;;;5074568;28;20303;-49
2024/01/15 02:20:29;;;;;;;7.78;0.80;;;2.50;99.90;;;;;;5074569;28;20055;-49
2024/01/15 02:23:01;;;;;;;5.77;1.63;;;2.50;99.90;;;;;;5074774;28;20472;-49
2024/01/15 02:25:27;;;;;;;8.30;1.30;;;2.40;99.90;;;;;;5073560;28;20438;-51
2024/01/15 02:27:53;;;;;;;3.35;0.82;;;2.50;99.90;;;;;;5074559;28;20044;-51
2024/01/15 02:30:18;;;;;;;5.50;1.03;;;2.50;99.90;;;;;;5074643;28;20045;-52
2024/01/15 02:32:45;;;;;;;6.67;1.10;;;2.50;99.90;;;;;;5074400;28;20479;-50
2024/01/15 02:35:11;;;;;;;7.32;0.90;;;2.50;99.90;;;;;;5074531;28;20044;-52
2024/01/15 02:37:36;;;;;;;2.80;0.50;;;2.50;99.90;;;;;;5074071;28;20048;-52
2024/01/15 02:40:02;;;;;;;6.03;0.47;;;2.60;99.90;;;;;;5074280;28;20048;-51
2024/01/15 02:42:28;;;;;;;1.03;0.10;;;2.60;99.90;;;;;;5074239;28;20052;-52
2024/01/15 02:44:53;;;;;;;3.00;0.33;;;2.70;99.90;;;;;;5074354;28;20048;-50
2024/01/15 02:47:19;;;;;;;2.60;0.30;;;2.60;99.90;;;;;;5074273;28;20134;-51
2024/01/15 02:49:45;;;;;;;5.87;0.83;;;2.60;99.90;;;;;;5073980;28;20056;-52
2024/01/15 02:52:10;;;;;;;5.57;0.70;;;2.70;99.90;;;;;;5090446;28;20048;-50
2024/01/15 02:54:36;;;;;;;3.87;0.50;;;2.70;99.90;;;;;;5074301;28;20045;-49
2024/01/15 02:57:01;;;;;;;3.13;0.40;;;2.70;99.90;;;;;;5073914;28;20044;-49
2024/01/15 02:59:27;;;;;;;5.07;0.50;;;2.80;99.90;;;;;;5074118;28;20056;-51
2024/01/15 03:01:53;;;;;;;3.33;0.60;;;2.80;99.90;;;;;;5073946;28;20094;-49
2024/01/15 03:04:18;;;;;;;2.40;0.30;;;2.80;99.90;;;;;;5074051;28;20075;-51
2024/01/15 03:06:44;;;;;;;3.20;0.20;;;2.80;99.90;;;;;;5074000;28;20040;-50
2024/01/15 03:09:09;;;;;;;3.15;0.30;;;2.80;99.90;;;;;;5073951;28;20044;-48
2024/01/15 03:11:39;;;;;;;1.15;0.20;;;2.70;99.90;;;;;;5073833;28;20056;-49
2024/01/15 03:14:05;;;;;;;3.40;0.20;;;2.70;99.90;;;;;;5072709;28;20044;-49
2024/01/15 03:16:30;;;;;;;5.18;0.88;;;2.70;99.90;;;;;;5073706;28;20442;-48
2024/01/15 03:18:56;;;;;;;4.53;0.53;;;2.60;99.90;;;;;;5073703;28;20053;-48
2024/01/15 03:21:22;;;;;;;5.82;0.95;;;2.70;99.90;;;;;;5074107;28;20478;-48
2024/01/15 03:23:47;;;;;;;3.05;0.57;;;2.60;99.90;;;;;;5073676;28;20040;-49
2024/01/15 03:26:13;;;;;;;5.03;0.47;;;2.60;99.90;;;;;;5073650;28;20181;-49
2024/01/15 03:28:39;;;;;;;5.00;0.70;;;2.50;99.90;;;;;;5073991;28;20084;-49
2024/01/15 03:31:04;;;;;;;6.47;0.70;;;2.50;99.90;;;;;;5073480;28;20071;-49
2024/01/15 03:33:30;;;;;;;6.63;1.05;;;2.60;99.90;;;;;;5073512;28;20450;-49
2024/01/15 03:35:56;;;;;;;8.60;0.80;;;2.60;99.90;;;;;;5073505;28;20050;-48
2024/01/15 03:38:23;;;;;;;10.73;1.42;;;2.60;99.90;;;;;;5073427;28;20090;-48
2024/01/15 03:40:49;;;;;;;4.90;1.00;;;2.50;99.90;;;;;;5073613;28;20270;-48
2024/01/15 03:43:14;;;;;;;9.15;1.73;;;2.60;99.90;;;;;;5072323;28;20129;-48
2024/01/15 03:45:40;;;;;;;6.63;0.77;;;2.50;99.90;;;;;;5073275;28;20049;-50
2024/01/15 03:48:06;;;;;;;5.90;1.52;;;2.50;99.90;;;;;;5073249;28;20045;-49
2024/01/15 03:50:31;;;;;;;8.60;1.20;;;2.50;99.90;;;;;;5077689;28;20090;-48
2024/01/15 03:52:57;;;;;;;10.25;1.48;;;2.60;99.90;;;;;;5077436;28;20132;-49
2024/01/15 03:55:23;;;;;;;8.73;0.90;;;2.50;99.90;;;;;;5077544;28;20040;-49
2024/01/15 03:57:48;;;;;;;9.32;0.93;;;2.50;99.90;;;;;;5077494;28;20040;-49
2024/01/15 04:00:17;;;;;;;6.70;1.05;;;2.50;99.90;;;;;;5077424;28;20040;-49
2024/01/15 04:02:44;;;;;;;11.68;1.17;;;2.50;99.90;;;;;;5077348;28;20084;-48
2024/01/15 04:05:10;;;;;;;6.95;0.85;;;2.60;99.90;;;;;;5076402;28;20184;-48
2024/01/15 04:07:35;;;;;;;6.37;0.67;;;2.60;99.90;;;;;;5077412;28;20040;-49
2024/01/15 04:10:01;;;;;;;8.05;1.35;;;2.70;99.90;;;;;;5077294;28;20051;-49
2024/01/15 04:12:27;;;;;;;9.07;1.00;;;2.70;99.90;;;;;;5077111;28;20535;-49
2024/01/15 04:14:52;;;;;;;4.10;0.80;;;2.70;99.90;;;;;;5077121;28;20048;-49
2024/01/15 04:17:18;;;;;;;4.40;1.08;;;2.80;99.90;;;;;;5076970;28;20138;-49
2024/01/15 04:19:44;;;;;;;3.77;0.80;;;2.80;99.90;;;;;;5077025;28;20110;-48
2024/01/15 04:22:10;;;;;;;9.63;1.07;;;2.90;99.90;;;;;;5077087;28;20514;-49
2024/01/15 04:24:35;;;;;;;6.33;0.70;;;2.90;99.90;;;;;;5077096;28;20127;-50
2024/01/15 04:27:01;;;;;;;5.37;0.83;;;2.90;99.90;;;;;;5077004;28;20067;-49
2024/01/15 04:29:27;;;;;;;7.53;1.20;;;2.90;99.90;;;;;;5076959;28;20369;-48
2024/01/15 04:31:53;;;;;;;4.87;1.40;;;3.00;99.90;;;;;;5076637;28;20369;-49
2024/01/15 04:34:19;;;;;;;4.97;0.93;;;3.00;99.90;;;;;;5076904;28;20048;-49
2024/01/15 04:36:44;;;;;;;6.57;0.67;;;3.00;99.90;;;;;;5076904;28;20039;-48
2024/01/15 04:39:11;;;;;;;3.95;0.60;;;2.90;99.90;;;;;;5076661;28;20052;-48
2024/01/15 04:41:37;;;;;;;6.15;0.90;;;2.90;99.90;;;;;;5076755;28;20108;-49
2024/01/15 04:44:03;;;;;;;8.67;0.70;;;2.80;99.90;;;;;;5058918;28;20048;-48
2024/01/15 04:46:28;;;;;;;4.90;1.53;;;2.80;99.90;;;;;;5076428;28;20095;-49
2024/01/15 04:48:54;;;;;;;2.10;0.30;;;2.70;99.90;;;;;;5076596;28;20047;-48
2024/01/15 04:51:20;;;;;;;3.60;0.40;;;2.60;99.90;;;;;;5075529;28;20051;-48
2024/01/15 04:53:45;;;;;;;4.72;0.65;;;2.60;99.90;;;;;;5075624;28;20079;-49
2024/01/15 04:56:11;;;;;;;1.92;0.40;;;2.50;99.90;;;;;;5076602;28;20044;-49
2024/01/15 04:58:37;;;;;;;3.87;0.50;;;2.40;99.90;;;;;;5076279;28;20133;-48
2024/01/15 05:01:03;;;;;;;5.20;0.73;;;2.40;99.90;;;;;;5075016;28;20045;-48
2024/01/15 05:03:29;;;;;;;5.32;1.05;;;2.40;99.90;;;;;;5076689;28;20045;-49
2024/01/15 05:05:55;;;;;;;1.40;0.40;;;2.30;99.90;;;;;;5076303;28;20138;-49
2024/01/15 05:08:21;;;;;;;0.87;0.23;;;2.30;99.90;;;;;;5074874;28;20041;-48
2024/01/15 05:10:47;;;;;;;1.60;0.37;;;2.20;99.90;;;;;;5076180;28;20044;-49
2024/01/15 05:13:13;;;;;;;4.75;1.02;;;2.30;99.90;;;;;;5076050;28;20048;-49
2024/01/15 05:15:39;;;;;;;0.93;0.27;;;2.30;99.90;;;;;;5075877;28;20055;-48
2024/01/15 05:18:05;;;;;;;4.17;0.50;;;2.20;99.90;;;;;;5076028;28;20044;-49
2024/01/15 05:20:31;;;;;;;3.97;0.47;;;2.20;99.90;;;;;;5074578;28;20162;-48
2024/01/15 05:22:57;;;;;;;4.35;0.80;;;2.20;99.90;;;;;;5075959;28;20122;-52
2024/01/15 05:25:23;;;;;;;5.55;0.70;;;2.20;99.90;;;;;;5076242;28;20088;-51
2024/01/15 05:27:49;;;;;;;4.67;0.40;;;2.10;99.90;;;;;;5075955;28;20052;-52
2024/01/15 05:30:15;;;;;;;4.77;0.37;;;2.10;99.90;;;;;;5074410;28;20476;-51
2024/01/15 05:32:40;;;;;;;2.85;0.77;;;2.10;99.90;;;;;;5075866;28;20052;-51
2024/01/15 05:35:06;;;;;;;7.88;0.50;;;2.00;99.90;;;;;;5076140;28;20132;-49
2024/01/15 05:37:32;;;;;;;5.38;1.13;;;2.00;99.90;;;;;;5075493;28;20040;-51
2024/01/15 05:39:58;;;;;;;7.10;0.63;;;2.00;99.90;;;;;;5075609;28;20045;-48
2024/01/15 05:42:24;;;;;;;3.17;0.60;;;2.00;99.90;;;;;;5075540;28;20079;-51
2024/01/15 05:44:49;;;;;;;8.32;1.05;;;2.10;99.90;;;;;;5075356;28;20495;-49
2024/01/15 05:47:15;;;;;;;2.73;0.57;;;2.10;99.90;;;;;;5075521;28;20048;-51
2024/01/15 05:49:41;;;;;;;6.70;0.70;;;2.10;99.90;;;;;;5075391;28;20117;-52
2024/01/15 05:52:06;;;;;;;3.07;0.60;;;2.10;99.90;;;;;;5075287;28;20076;-49
2024/01/15 05:54:32;;;;;;;4.73;0.97;;;2.10;99.90;;;;;;5074391;28;20045;-48
2024/01/15 05:56:58;;;;;;;7.93;1.23;;;2.10;99.90;;;;;;5075131;28;20037;-49
2024/01/15 05:59:23;;;;;;;6.63;0.83;;;2.10;99.90;;;;;;5074952;28;20056;-49
2024/01/15 06:01:49;;;;;;;3.13;0.87;;;2.10;99.90;;;;;;5075259;28;20098;-50
2024/01/15 06:04:15;;;;;;;3.90;0.65;;;2.10;99.90;;;;;;5075105;28;20502;-49
2024/01/15 06:06:40;;;;;;;4.37;0.60;;;2.00;99.90;;;;;;5075102;28;20041;-49
2024/01/15 06:09:06;;;;;;;4.77;0.77;;;2.00;99.90;;;;;;5074204;28;20059;-50
2024/01/15 06:11:32;;;;;;;7.13;1.00;;;2.00;99.90;;;;;;5074308;28;20051;-48
2024/01/15 06:13:58;;;;;;;4.07;0.68;;;2.00;99.90;;;;;;5073747;28;20487;-49
2024/01/15 06:16:24;;;;;;;7.60;0.90;;;1.90;99.90;;;;;;5074831;28;20052;-49
2024/01/15 06:18:50;;;;;;;4.13;1.10;;;1.90;99.90;;;;;;5074740;28;20070;-49
2024/01/15 06:21:16;;;;;;;6.22;1.02;;;1.90;99.90;;;;;;5074962;28;20057;-49
2024/01/15 06:23:42;;;;;;;8.80;1.10;;;1.90;99.90;;;;;;5074779;28;20048;-48
2024/01/15 06:26:08;;;;;;;7.75;1.00;;;1.90;99.90;;;;;;5074509;28;20044;-49
2024/01/15 06:28:34;;;;;;;4.88;0.75;;;1.90;99.90;;;;;;5074522;28;20072;-49
2024/01/15 06:30:59;;;;;;;5.60;0.77;;;1.90;99.90;;;;;;5074170;28;20459;-50
2024/01/15 06:33:25;;;;;;;7.10;0.80;;;1.90;99.90;;;;;;5073662;28;20505;-48
2024/01/15 06:35:51;;;;;;;6.97;0.97;;;1.90;99.90;;;;;;5074697;28;20109;-49
2024/01/15 06:38:16;;;;;;;6.07;1.00;;;1.90;99.90;;;;;;5074425;28;20040;-49
2024/01/15 06:40:45;;;;;;;6.20;0.98;;;1.90;99.90;;;;;;5074558;28;20044;-50
2024/01/15 06:43:12;;;;;;;7.30;1.40;;;1.90;99.90;;;;;;5074363;28;20097;-48
2024/01/15 06:45:38;;;;;;;6.35;0.95;;;1.80;99.90;;;;;;5074371;28;20083;-51
2024/01/15 06:48:04;;;;;;;8.30;1.10;;;1.80;99.90;;;;;;5074413;28;20499;-52
2024/01/15 06:50:29;;;;;;;9.30;0.97;;;1.90;99.90;;;;;;5074440;28;20052;-50
2024/01/15 06:52:55;;;;;;;6.72;1.40;;;1.80;99.90;;;;;;5074397;28;20306;-52
2024/01/15 06:55:21;;;;;;;6.90;1.00;;;1.80;99.90;;;;;;5074165;28;20036;-51
2024/01/15 06:57:47;;;;;;;6.93;1.20;;;1.90;99.90;;;;;;5074097;28;20044;-51
2024/01/15 07:00:13;;;;;;;4.87;1.23;;;1.90;99.90;;;;;;5074142;28;20054;-52
2024/01/15 07:02:39;;;;;;;4.13;0.82;;;1.90;99.90;;;;;;5074154;28;20054;-50
2024/01/15 07:05:08;;;;;;;9.63;1.17;;;1.90;99.90;;;;;;5074064;28;20487;-49
2024/01/15 07:07:34;;;;;;;7.22;1.00;;;1.80;99.90;;;;;;5073976;28;20381;-52
2024/01/15 07:09:59;;;;;;;9.05;0.82;;;1.90;99.90;;;;;;5073952;28;20127;-52
2024/01/15 07:12:25;;;;;;;8.80;0.85;;;1.80;99.90;;;;;;5073796;28;20036;-51
2024/01/15 07:14:51;;;;;;;7.78;1.00;;;1.80;99.90;;;;;;5074113;28;20486;-52
2024/01/15 07:17:16;;;;;;;4.82;0.68;;;1.70;99.90;;;;;;5073883;28;20395;-52
2024/01/15 07:19:42;;;;;;;3.40;1.33;;;1.70;99.90;;;;;;5073600;28;20052;-48
2024/01/15 07:22:08;;;;;;;2.92;0.40;;;1.80;99.90;;;;;;5073828;28;20110;-48
2024/01/15 07:24:34;;;;;;;6.95;0.32;;;1.70;99.90;;;;;;5072764;28;20132;-49
2024/01/15 07:27:00;;;;;;;2.83;0.43;;;1.70;99.90;;;;;;5073713;28;20079;-48
2024/01/15 07:29:26;;;;;;;3.10;0.63;;;1.70;99.90;;;;;;5073488;28;20460;-49
2024/01/15 07:31:52;;;;;;;4.40;1.03;;;1.70;99.90;;;;;;5073576;28;20041;-47
2024/01/15 07:34:18;;;;;;;4.90;0.50;;;1.70;99.90;;;;;;5073607;28;20075;-48
2024/01/15 07:36:45;;;;;;;3.40;0.80;;;1.60;99.90;;;;;;5072587;28;20051;-48
2024/01/15 07:39:11;;;;;;;2.50;0.75;;;1.60;99.90;;;;;;5073537;28;20048;-48
2024/01/15 07:41:36;;;;;;;6.60;0.60;;;1.60;99.90;;;;;;5073467;28;20407;-48
2024/01/15 07:44:03;;;;;;;5.10;0.53;;;1.60;99.90;;;;;;5073597;28;20047;-48
2024/01/15 07:46:28;;;;;;;4.40;0.43;;;1.60;99.90;;;;;;5089142;28;20516;-48
2024/01/15 07:48:57;;;;;;;5.15;0.88;;;1.60;99.90;;;;;;5073480;28;20123;-48
2024/01/15 07:51:23;;;;;;;2.90;0.50;;;1.60;99.90;;;;;;5073640;28;20045;-48
2024/01/15 07:53:49;;;;;;;2.10;0.50;;;1.60;99.90;;;;;;5073444;28;20053;-48
2024/01/15 07:56:15;;;;;;;2.15;0.38;;;1.60;99.90;;;;;;5072245;28;20052;-48
2024/01/15 07:58:42;;;;;;;6.82;1.13;;;1.70;99.90;;;;;;5073357;28;20048;-48
2024/01/15 08:01:07;;;;;;;3.50;0.82;;;1.60;99.90;;;;;;5073109;28;20499;-48
2024/01/15 08:03:33;;;;;;;3.57;0.40;;;1.70;99.90;;;;;;5073589;28;20052;-48
2024/01/15 08:05:59;;;;;;;3.77;0.60;;;1.70;99.90;;;;;;5073404;28;20472;-48
2024/01/15 08:08:28;;;;;;;4.32;0.30;;;1.60;99.90;;;;;;5073420;28;20371;-48
2024/01/15 08:10:54;;;;;;;6.50;0.43;;;1.60;99.90;;;;;;5073266;28;20091;-53
2024/01/15 08:13:20;;;;;;;3.80;0.90;;;1.60;99.90;;;;;;5073297;28;20084;-49
2024/01/15 08:15:46;;;;;;;4.45;0.55;;;1.70;99.90;;;;;;5073301;28;20102;-51
2024/01/15 08:18:12;;;;;;;2.53;0.40;;;1.70;99.90;;;;;;5073123;28;20037;-52
2024/01/15 08:20:38;;;;;;;4.27;0.60;;;1.70;99.90;;;;;;5073106;28;20109;-52
2024/01/15 08:23:04;;;;;;;7.20;0.82;;;1.70;99.90;;;;;;5073307;28;20544;-50
2024/01/15 08:25:30;;;;;;;4.32;0.65;;;1.70;99.90;;;;;;5073125;28;20080;-52
2024/01/15 08:27:59;;;;;;;5.35;0.93;;;1.60;99.90;;;;;;5073180;28;20476;-48
2024/01/15 08:30:27;;;;;;;6.45;0.75;;;1.70;99.90;;;;;;5073073;28;20080;-52
2024/01/15 08:32:54;;;;;;;3.53;0.55;;;1.60;99.90;;;;;;5072801;28;20556;-49
2024/01/15 08:35:22;;;;;;;5.28;0.73;;;1.60;99.90;;;;;;5074399;28;20519;-52
2024/01/15 08:37:52;;;;;;;7.25;0.77;;;1.60;99.90;;;;;;5076727;28;20054;-51
2024/01/15 08:40:18;;;;;;;5.60;0.60;;;1.60;99.90;;;;;;5077147;28;20044;-48
2024/01/15 08:42:45;;;;;;;8.20;1.52;;;1.60;99.90;;;;;;5076707;28;20400;-49
2024/01/15 08:45:11;;;;;;;7.70;1.00;;;1.60;99.90;;;;;;5076711;28;20052;-52
2024/01/15 08:47:37;;;;;;;7.38;0.85;;;1.60;99.90;;;;;;5076692;28;20044;-49
2024/01/15 08:50:04;;;;;;;3.83;0.73;;;1.60;99.90;;;;;;5076595;28;20498;-48
2024/01/15 08:52:29;;;;;;;9.05;1.25;;;1.60;99.90;;;;;;5076370;28;20052;-48
2024/01/15 08:54:58;;;;;;;3.67;0.68;;;1.60;99.90;;;;;;5076265;28;20131;-48
2024/01/15 08:57:24;;;;;;;1.92;0.38;;;1.60;99.90;;;;;;5076350;28;20446;-48
2024/01/15 08:59:51;;;;;;;3.60;0.30;;;1.60;99.90;;;;;;5076253;28;20048;-49
2024/01/15 09:02:16;;;;;;;;;;;1.60;99.90;;;;;;5076194;28;20052;-48
2024/01/15 09:04:42;;;;;;;1.45;0.28;;;1.60;99.90;;;;;;5076233;28;19928;-48
2024/01/15 09:07:08;;;;;;;2.75;0.47;;;1.50;99.90;;;;;;5076011;28;20123;-49
2024/01/15 09:09:34;;;;;;;2.13;0.40;;;1.60;99.90;;;;;;5075982;28;20377;-49
2024/01/15 09:12:00;;;;;;;3.20;1.10;;;1.50;99.90;;;;;;5075165;28;20131;-47
2024/01/15 09:14:26;;;;;;;3.97;0.30;;;1.50;99.90;;;;;;5075182;28;20129;-48
2024/01/15 09:16:53;;;;;;;2.25;0.47;;;1.50;99.90;;;;;;5076098;28;20045;-48
2024/01/15 09:19:19;;;;;;;2.60;0.40;;;1.60;99.90;;;;;;5076241;28;20052;-48
2024/01/15 09:21:45;;;;;;;3.17;0.40;;;1.60;99.90;;;;;;5075675;28;20056;-48
2024/01/15 09:24:11;;;;;;;5.88;0.90;;;1.60;99.90;;;;;;5076215;28;20045;-48
2024/01/15 09:26:36;;;;;;;6.93;0.80;;;1.60;99.90;;;;;;5075972;28;20404;-48
2024/01/15 09:29:02;;;;;;;4.20;0.50;;;1.60;99.90;;;;;;5075883;28;20526;-48
2024/01/15 09:31:28;;;;;;;3.85;0.43;;;1.60;99.90;;;;;;5075878;28;20040;-48
2024/01/15 09:33:59;;;;;;;2.73;0.37;;;1.60;99.90;;;;;;5075988;28;20045;-48
2024/01/15 09:36:25;;;;;;;3.55;0.47;;;1.60;99.90;;;;;;5075636;28;20119;-48
2024/01/15 09:38:51;;;;;;;5.78;0.85;;;1.60;99.90;;;;;;5075676;28;20048;-47
2024/01/15 09:41:17;;;;;;;4.97;0.45;;;1.60;99.90;;;;;;5075657;28;20089;-48
2024/01/15 09:43:43;;;;;;;6.95;0.40;;;1.60;99.90;;;;;;5075630;28;20136;-48
2024/01/15 09:46:09;;;;;;;4.07;0.80;;;1.60;99.90;;;;;;5074854;28;20044;-49
2024/01/15 09:48:35;;;;;;;6.95;0.70;;;1.60;99.90;;;;;;5075494;28;20045;-48
2024/01/15 09:51:06;;;;;;;6.47;0.50;;;1.60;99.90;;;;;;5074283;28;20056;-48
2024/01/15 09:53:33;;;;;;;5.40;0.75;;;1.70;99.90;;;;;;5075405;28;20044;-47
2024/01/15 09:55:59;;;;;;;3.85;0.50;;;1.70;99.90;;;;;;5075436;28;20074;-47
2024/01/15 09:58:25;;;;;;;4.90;0.65;;;1.70;99.90;;;;;;5075184;28;20036;-47
2024/01/15 10:00:53;;;;;;;3.20;0.57;;;1.70;99.90;;;;;;5075359;28;20072;-48
2024/01/15 10:03:18;;;;;;;2.88;0.70;;;1.80;99.90;;;;;;5075115;28;20123;-48
2024/01/15 10:05:44;;;;;;;6.15;0.73;;;1.80;99.90;;;;;;5075031;28;20132;-49
2024/01/15 10:08:11;;;;;;;4.70;0.73;;;1.90;99.90;;;;;;5075138;28;20110;-48
2024/01/15 10:10:37;;;;;;;2.97;0.40;;;1.90;99.90;;;;;;5075413;28;20091;-48
2024/01/15 10:13:04;;;;;;;7.38;0.95;;;1.80;99.90;;;;;;5074899;28;20583;-48
2024/01/15 10:15:33;;;;;;;;;;;1.70;99.90;;;;;;5075464;28;20059;-48
2024/01/15 10:17:59;;;;;;;5.72;0.50;;;1.80;99.90;;;;;;5074683;28;20403;-48
2024/01/15 10:20:25;;;;;;;3.63;0.63;;;1.80;99.90;;;;;;5074954;28;20067;-48
2024/01/15 10:22:50;;;;;;;2.40;0.50;;;1.80;99.90;;;;;;5075124;28;20476;-47
2024/01/15 10:25:22;;;;;;;6.40;1.05;;;1.80;99.90;;;;;;5074768;28;20044;-48
2024/01/15 10:28:03;;;;;;;1.13;0.32;;;1.80;99.90;;;;;;5074600;28;20049;-47
2024/01/15 10:30:29;;;;;;;4.97;1.10;;;1.80;99.90;;;;;;5074679;28;20048;-47
2024/01/15 10:33:01;;;;;;;4.10;0.63;;;1.80;99.90;;;;;;5074429;28;20091;-47
2024/01/15 10:35:35;;;;;;;4.00;0.65;;;1.80;99.90;;;;;;5074631;28;20132;-48
2024/01/15 10:38:02;;;;;;;5.18;0.50;;;1.80;99.90;;;;;;5074420;28;20036;-48
2024/01/15 10:40:28;;;;;;;4.60;0.52;;;1.90;99.90;;;;;;5074452;28;20048;-47
2024/01/15 10:42:54;;;;;;;5.65;0.60;;;2.00;99.90;;;;;;5074248;28;20048;-48
2024/01/15 10:45:20;;;;;;;2.53;0.60;;;2.00;99.90;;;;;;5074213;28;20037;-50
2024/01/15 10:47:46;;;;;;;1.92;0.30;;;2.10;99.90;;;;;;5074348;28;20475;-50
2024/01/15 10:50:12;;;;;;;1.20;0.22;;;2.20;99.90;;;;;;5074312;28;20142;-48
2024/01/15 10:52:43;;;;;;;1.30;0.30;;;2.20;99.90;;;;;;5073258;28;20044;-47
2024/01/15 10:55:09;;;;;;;1.77;0.20;;;2.20;99.90;;;;;;5074219;28;20051;-48
2024/01/15 10:57:36;;;;;;;0.85;0.20;;;2.10;99.90;;;;;;5073868;28;20044;-47
2024/01/15 11:00:05;;;;;;;2.90;0.30;;;2.00;99.90;;;;;;5073873;28;20040;-48
2024/01/15 11:02:34;;;;;;;2.13;0.28;;;2.00;99.90;;;;;;5074105;28;20475;-48
2024/01/15 11:05:00;;;;;;;0.73;0.20;;;2.00;99.90;;;;;;5073999;28;20048;-51
2024/01/15 11:07:26;;;;;;;2.13;0.30;;;2.00;99.90;;;;;;5074036;28;20040;-53
2024/01/15 11:09:52;;;;;;;0.38;0.10;;;1.90;99.90;;;;;;5073782;28;20086;-52
2024/01/15 11:12:19;;;;;;;3.50;0.40;;;1.90;99.90;;;;;;5073776;28;20080;-53
2024/01/15 11:14:49;;;;;;;1.10;0.17;;;1.90;99.90;;;;;;5073916;28;20131;-49
2024/01/15 11:17:16;;;;;;;1.25;0.30;;;1.90;99.90;;;;;;5073719;28;20048;-50
2024/01/15 11:19:43;;;;;;;1.65;0.20;;;1.90;99.90;;;;;;5073524;28;20044;-47
2024/01/15 11:22:18;;;;;;;2.28;0.30;;;1.90;99.90;;;;;;5073771;28;20070;-49
2024/01/15 11:24:44;;;;;;;3.78;0.38;;;2.00;99.90;;;;;;5073643;28;20044;-49
2024/01/15 11:27:09;;;;;;;5.10;0.30;;;2.00;99.90;;;;;;5072358;28;20052;-48
2024/01/15 11:29:37;;;;;;;2.47;0.30;;;2.10;99.90;;;;;;5073945;28;20495;-50
2024/01/15 11:32:07;;;;;;;0.60;0.20;;;2.10;99.90;;;;;;5073644;28;20045;-48
2024/01/15 11:35:01;;;;;;;0.40;0.00;;;2.20;99.90;;;;;;5073741;28;20482;-49
2024/01/15 11:37:29;;;;;;;0.47;0.00;;;2.20;99.90;;;;;;5072519;28;20047;-49
2024/01/15 11:40:00;;;;;;;0.63;0.10;;;2.30;99.90;;;;;;5073547;28;20095;-49
2024/01/15 11:42:27;;;;;;;1.65;0.10;;;2.40;99.90;;;;;;5073556;28;20051;-49
2024/01/15 11:44:54;;;;;;;;;;;2.40;99.90;;;;;;5074000;28;20052;-50
2024/01/15 11:47:54;;;;;;;0.20;0.10;;;2.40;99.90;;;;;;5073334;28;20466;-48
2024/01/15 11:50:21;;;;;;;0.75;0.17;;;2.30;99.90;;;;;;5073496;28;20044;-48
2024/01/15 11:53:01;;;;;;;3.42;0.40;;;2.30;99.90;;;;;;5072829;28;20434;-47
2024/01/15 11:55:30;;;;;;;2.05;0.40;;;2.30;99.90;;;;;;5073565;28;20053;-48
2024/01/15 11:58:00;;;;;;;0.98;0.15;;;2.30;99.90;;;;;;5073428;28;20088;-49
2024/01/15 12:00:26;;;;;;;1.35;0.20;;;2.30;99.90;;;;;;5073250;28;20084;-47
2024/01/15 12:02:52;;;;;;;0.20;0.10;;;2.30;99.90;;;;;;5073412;28;20080;-48
2024/01/15 12:05:19;;;;;;;1.93;0.13;;;2.30;99.90;;;;;;5073422;28;20106;-48
2024/01/15 12:07:47;;;;;;;1.40;0.50;;;2.20;99.90;;;;;;5073407;28;20480;-48
2024/01/15 12:10:18;;;;;;;0.30;0.05;;;2.10;99.90;;;;;;5074777;28;20052;-48
2024/01/15 12:12:50;;;;;;;2.17;0.30;;;2.10;99.90;;;;;;5077195;28;20049;-47
2024/01/15 12:15:16;;;;;;;1.75;0.15;;;2.10;99.90;;;;;;5077571;28;20045;-47
2024/01/15 12:17:41;;;;;;;0.83;0.17;;;2.10;99.90;;;;;;5075992;28;20098;-48
2024/01/15 12:20:07;;;;;;;1.23;0.25;;;2.10;99.90;;;;;;5077109;28;20634;-48
2024/01/15 12:22:33;;;;;;;2.27;0.30;;;2.10;99.90;;;;;;5077025;28;20098;-47
2024/01/15 12:24:59;;;;;;;0.50;0.20;;;2.20;99.90;;;;;;5076949;28;20052;-48
2024/01/15 12:27:25;;;;;;;2.35;0.40;;;2.20;99.90;;;;;;5075631;28;20091;-48
2024/01/15 12:29:53;;;;;;;4.18;0.45;;;2.30;99.90;;;;;;5076808;28;20052;-47
2024/01/15 12:32:21;;;;;;;3.08;0.40;;;2.30;99.90;;;;;;5076858;28;20041;-49
2024/01/15 12:34:48;;;;;;;1.45;0.30;;;2.30;99.90;;;;;;5076834;28;20395;-48
2024/01/15 12:37:26;;;;;;;3.28;0.40;;;2.40;99.90;;;;;;5076746;28;20037;-51
2024/01/15 12:39:51;;;;;;;;;;;2.40;99.90;;;;;;5077162;28;20127;-47
2024/01/15 12:42:17;;;;;;;1.73;0.30;;;2.50;99.90;;;;;;5076465;28;20335;-47
2024/01/15 12:44:45;;;;;;;1.80;0.25;;;2.60;99.90;;;;;;5077160;28;20087;-48
2024/01/15 12:47:11;;;;;;;3.30;0.30;;;2.60;99.90;;;;;;5075602;28;20171;-48
2024/01/15 12:49:37;;;;;;;1.20;0.40;;;2.80;99.90;;;;;;5076571;28;20555;-48
2024/01/15 12:52:03;;;;;;;2.53;0.50;;;2.80;99.90;;;;;;5076461;28;20072;-47
2024/01/15 12:54:29;;;;;;;5.43;1.13;;;2.80;99.90;;;;;;5076680;28;20048;-48